Monette Ferry, Louisiana
Current Conditions -  °F | °C
As of 5:53 AM on Monday 24 Nov 2014 (Local Time) from KAEX Reporting Station
Clear Clear  
Wind Chill: 51°   Ceiling: Unl
Heat Index: 51°   Visibility: 10mi
Dew Point: 44°   Wind: 13mph
Humidity: 77%   Direction: 320°NW
Pressure: 29.84"   Gusts: NA
Location:  31.4254°N, 92.7765°W
Report Text: KAEX 241153Z 32011KT 10SM CLR 11/07 A2984 RMK AO2 SLP108 70021 T01060067 10167 20106 53034
Loading
Personal Weather Stations






























Interactive Weather Map New forecast layout! Learn more

10-Day Weather Forecast

Advertisements
Track Severe Weather on mobile